NORTHERN QUEENS  -  Air Quality Alert Air Quality Alert        SOUTHERN QUEENS  -  Air Quality Alert Air Quality Alert      

Active alerts

Northern Queens
  Details for Northern Queens Air Quality Alert
Southern Queens
  Details for Southern Queens Air Quality Alert


WXM80 ListenWXM80 Stop

You find our weather info also at:

UK Metoffice

WeatherCloud

Weather Underground

Northeastern Weather Network

AWEKAS

Citizen Weather Observer Program (CWOP)

HAMweather, WeatherForYou, PWS Weather


Weather Underground History page Text

Daily Summary for January 21, 2017 Units:  Metric    English   Both
« Previous Day
Next Day »
Daily Weekly Monthly Yearly Custom
  High: Low: Average:
Temperature: 11.9 °C 4.5 °C 7.3 °C
Dew Point: 8.4 °C 3.7 °C 6 °C
Humidity: 97 % 77 % 92 %
Wind Speed: 9 km/h 0 km/h 2.1 km/h
Wind Gust: 14.8 km/h - -
Wind:- - WSW
Pressure: 1012.4 hPa 1007.3 hPa -
Precipitation: 0 mm    
Historical Graphs
 
 
Tabular Data for January 21, 2017
Time Temperature Dew Point Pressure Wind Wind Speed Wind Gust Humidity Rainfall Rate (Hourly)
00:04 4.6 °C 3.7 °C 1011.7 hPa Calm     94 % 0.25 mm
00:09 4.6 °C 3.7 °C 1011.7 hPa Calm     94 % 0.25 mm
00:14 4.6 °C 3.7 °C 1012.1 hPa ESE 0.2 km/h 1.9 km/h 94 % 0.25 mm
00:19 4.6 °C 3.8 °C 1012.1 hPa ESE 0.6 km/h 1.9 km/h 95 % 0.25 mm
00:24 4.6 °C 3.8 °C 1012.1 hPa ESE 1.9 km/h 3.7 km/h 95 % 0.25 mm
00:29 4.6 °C 3.8 °C 1012.1 hPa Calm   5.6 km/h 95 % 0.25 mm
00:34 4.6 °C 3.8 °C 1012.1 hPa WNW 0.2 km/h 1.9 km/h 95 % 0.25 mm
00:39 4.5 °C 3.8 °C 1012.4 hPa Calm     95 % 0 mm
00:44 4.5 °C 3.8 °C 1012.4 hPa WNW 1.9 km/h 3.7 km/h 95 % 0 mm
00:49 4.5 °C 3.8 °C 1012.1 hPa WNW 0.6 km/h 3.7 km/h 95 % 0 mm
00:54 4.5 °C 3.8 °C 1012.4 hPa WNW 2.7 km/h 5.6 km/h 95 % 0 mm
00:59 4.5 °C 3.8 °C 1012.1 hPa West 1.1 km/h 1.9 km/h 95 % 0 mm
01:05 4.5 °C 3.8 °C 1012.1 hPa Calm   1.9 km/h 95 % 0 mm
01:10 4.5 °C 3.8 °C 1012.1 hPa West 2.1 km/h 3.7 km/h 95 % 0 mm
01:15 4.5 °C 3.8 °C 1012.1 hPa Calm   1.9 km/h 95 % 0 mm
01:20 4.5 °C 3.8 °C 1012.1 hPa West 0.8 km/h 3.2 km/h 95 % 0 mm
01:25 4.5 °C 3.8 °C 1012.4 hPa Calm     95 % 0 mm
01:30 4.5 °C 3.8 °C 1012.4 hPa Calm   1.9 km/h 95 % 0 mm
01:35 4.5 °C 3.8 °C 1012.1 hPa Calm     95 % 0 mm
01:40 4.6 °C 3.8 °C 1012.1 hPa Calm     95 % 0 mm
01:45 4.5 °C 3.8 °C 1012.1 hPa Calm     95 % 0 mm
01:50 4.5 °C 3.8 °C 1012.1 hPa Calm     95 % 0 mm
01:55 4.5 °C 3.8 °C 1012.1 hPa Calm     95 % 0 mm
02:00 4.5 °C 3.8 °C 1012.1 hPa Calm     95 % 0 mm
02:05 4.6 °C 3.8 °C 1012.4 hPa Calm     95 % 0 mm
02:10 4.6 °C 3.8 °C 1012.4 hPa Calm     95 % 0 mm
02:15 4.6 °C 3.8 °C 1012.1 hPa Calm     95 % 0 mm
02:20 4.6 °C 3.8 °C 1012.1 hPa Calm     95 % 0 mm
02:26 4.6 °C 3.8 °C 1012.1 hPa Calm     95 % 0 mm
02:31 4.6 °C 3.8 °C 1012.1 hPa Calm     95 % 0 mm
02:36 4.6 °C 3.8 °C 1012.1 hPa Calm     95 % 0 mm
02:41 4.6 °C 3.8 °C 1011.7 hPa Calm     95 % 0 mm
02:46 4.6 °C 3.9 °C 1011.7 hPa Calm     95 % 0 mm
02:51 4.6 °C 3.9 °C 1011.7 hPa West 0.6 km/h 1.9 km/h 95 % 0 mm
02:56 4.6 °C 4.1 °C 1011.7 hPa West 0.6 km/h 3.7 km/h 96 % 0 mm
03:01 4.7 °C 4.1 °C 1011.4 hPa SW 0.2 km/h 1.9 km/h 96 % 0 mm
03:06 4.7 °C 4.1 °C 1011.4 hPa SW 1.3 km/h 3.7 km/h 96 % 0 mm
03:11 4.8 °C 4.2 °C 1011.4 hPa SW 0.2 km/h 1.9 km/h 96 % 0 mm
03:16 4.8 °C 4.2 °C 1011.1 hPa Calm   1.9 km/h 96 % 0 mm
03:21 4.8 °C 4.2 °C 1011.1 hPa SW 1.9 km/h 4.8 km/h 96 % 0 mm
03:26 4.9 °C 4.3 °C 1011.1 hPa SW 0.5 km/h 3.7 km/h 96 % 0 mm
03:31 5.1 °C 4.4 °C 1011.1 hPa SW 1.1 km/h 3.7 km/h 96 % 0 mm
03:36 5.1 °C 4.4 °C 1011.1 hPa SW 0.5 km/h 3.7 km/h 96 % 0 mm
03:41 5.1 °C 4.5 °C 1011.1 hPa South 1.9 km/h 6.4 km/h 96 % 0 mm
03:46 5.2 °C 4.6 °C 1011.1 hPa SW 0.8 km/h 3.7 km/h 96 % 0 mm
03:51 5.2 °C 4.6 °C 1011.1 hPa SW 2.3 km/h 5.6 km/h 96 % 0 mm
03:57 5.3 °C 4.7 °C 1011.1 hPa WSW 3.2 km/h 6.4 km/h 96 % 0 mm
04:02 5.3 °C 4.7 °C 1010.7 hPa WSW 3.7 km/h 8 km/h 96 % 0 mm
04:07 5.4 °C 4.8 °C 1010.7 hPa SW 4.3 km/h 9.3 km/h 96 % 0 mm
04:12 5.5 °C 4.9 °C 1010.7 hPa WSW 5 km/h 11.1 km/h 96 % 0 mm
04:17 5.6 °C 4.9 °C 1010.7 hPa WSW 2.1 km/h 7.4 km/h 96 % 0 mm
04:22 5.7 °C 5.1 °C 1010.7 hPa SW 5.1 km/h 9.3 km/h 96 % 0 mm
04:27 5.7 °C 5.1 °C 1010.7 hPa SW 3.9 km/h 7.4 km/h 96 % 0 mm
04:32 5.7 °C 5.3 °C 1010.7 hPa SW 9 km/h 14.8 km/h 97 % 0 mm
04:37 5.8 °C 5.3 °C 1010.7 hPa WSW 2.4 km/h 5.6 km/h 97 % 0 mm
04:42 5.8 °C 5.4 °C 1010.7 hPa SW 6 km/h 11.1 km/h 97 % 0 mm
04:47 5.8 °C 5.2 °C 1010.7 hPa WSW 6.8 km/h 13 km/h 96 % 0 mm
04:52 5.8 °C 5.2 °C 1010.7 hPa WSW 1.9 km/h 5.6 km/h 96 % 0 mm
04:57 5.9 °C 5.3 °C 1011.1 hPa WSW 6.3 km/h 13 km/h 96 % 0 mm
05:02 5.9 °C 5.3 °C 1011.1 hPa WSW 8.7 km/h 9.7 km/h 96 % 0 mm
05:07 5.9 °C 5.3 °C 1010.7 hPa WSW 6.8 km/h 13 km/h 96 % 0 mm
05:12 5.9 °C 5.5 °C 1011.1 hPa WSW 7.9 km/h 13 km/h 97 % 0 mm
05:18 6 °C 5.6 °C 1011.1 hPa WSW 6.9 km/h 11.1 km/h 97 % 0 mm
05:23 6 °C 5.4 °C 1011.1 hPa WSW 2.9 km/h 9.7 km/h 96 % 0 mm
05:28 6.1 °C 5.4 °C 1010.7 hPa SW 5.6 km/h 5.6 km/h 96 % 0 mm
05:33 6.1 °C 5.4 °C 1010.7 hPa SW 2.7 km/h 5.6 km/h 96 % 0 mm
05:38 6 °C 5.4 °C 1010.7 hPa WSW 1.3 km/h 3.7 km/h 96 % 0 mm
05:43 6 °C 5.4 °C 1010.4 hPa West 0.8 km/h 5.6 km/h 96 % 0 mm
05:48 6 °C 5.4 °C 1010.4 hPa Calm     96 % 0 mm
05:53 6 °C 5.4 °C 1010.4 hPa West 0.2 km/h 1.9 km/h 96 % 0 mm
05:58 6 °C 5.4 °C 1010.7 hPa West 1.4 km/h 3.7 km/h 96 % 0 mm
06:03 6 °C 5.4 °C 1010.4 hPa West 1.4 km/h 5.6 km/h 96 % 0 mm
06:08 6 °C 5.4 °C 1010.4 hPa Calm   1.9 km/h 96 % 0 mm
06:13 6 °C 5.4 °C 1010.7 hPa West 2.3 km/h 3.7 km/h 96 % 0 mm
06:18 6 °C 5.4 °C 1010.7 hPa Calm     96 % 0 mm
06:19 6 °C 5.4 °C 1010.4 hPa West 0.2 km/h 1.9 km/h 96 % 0 mm
06:24 6 °C 5.4 °C 1010.4 hPa West 1.6 km/h 5.6 km/h 96 % 0 mm
06:29 6 °C 5.4 °C 1010.7 hPa SW 3.7 km/h 7.4 km/h 96 % 0 mm
06:34 6 °C 5.4 °C 1010.7 hPa SW 2.6 km/h 5.6 km/h 96 % 0 mm
06:39 6 °C 5.4 °C 1010.7 hPa WSW 1.1 km/h 5.6 km/h 96 % 0 mm
06:44 6 °C 5.4 °C 1010.7 hPa SW 2.6 km/h 6.4 km/h 96 % 0 mm
06:49 5.9 °C 5.3 °C 1010.7 hPa SW 3.5 km/h 5.6 km/h 96 % 0 mm
06:54 6 °C 5.4 °C 1010.7 hPa SW 7.1 km/h 7.1 km/h 96 % 0 mm
06:59 6 °C 5.4 °C 1010.7 hPa SW 0.8 km/h 3.7 km/h 96 % 0 mm
07:05 6 °C 5.4 °C 1010.7 hPa SW 0.3 km/h 1.9 km/h 96 % 0 mm
07:10 6 °C 5.4 °C 1010.7 hPa SW 5.1 km/h 5.6 km/h 96 % 0 mm
07:15 6 °C 5.4 °C 1010.7 hPa SW 3.9 km/h 6.4 km/h 96 % 0 mm
07:20 6 °C 5.4 °C 1010.7 hPa WSW 2.7 km/h 5.6 km/h 96 % 0 mm
07:25 6 °C 5.4 °C 1010.7 hPa SW 2.4 km/h 5.6 km/h 96 % 0 mm
07:30 6.1 °C 5.4 °C 1010.7 hPa WSW 1.9 km/h 5.6 km/h 96 % 0 mm
07:35 6.1 °C 5.4 °C 1010.7 hPa West 1.1 km/h 5.6 km/h 96 % 0 mm
07:40 6.1 °C 5.4 °C 1010.7 hPa WSW 4.3 km/h 7.4 km/h 96 % 0 mm
07:45 6.1 °C 5.5 °C 1010.7 hPa SW 2.9 km/h 7.4 km/h 96 % 0 mm
07:50 6.1 °C 5.5 °C 1010.7 hPa Calm     96 % 0 mm
07:55 6.1 °C 5.5 °C 1010.7 hPa WSW 0.5 km/h 3.7 km/h 96 % 0 mm
08:00 6.2 °C 5.6 °C 1010.7 hPa SW 1.1 km/h 3.7 km/h 96 % 0 mm
08:05 6.2 °C 5.6 °C 1010.7 hPa SW 1.6 km/h 3.7 km/h 96 % 0 mm
08:10 6.2 °C 5.6 °C 1010.4 hPa Calm     96 % 0 mm
08:15 6.3 °C 5.7 °C 1010.7 hPa SW 0.2 km/h 1.9 km/h 96 % 0 mm
08:20 6.3 °C 5.7 °C 1010.4 hPa SW 2.3 km/h 5.6 km/h 96 % 0 mm
08:24 6.3 °C 5.8 °C 1010.4 hPa Calm   4.8 km/h 96 % 0 mm
08:29 6.4 °C 5.8 °C 1010.4 hPa SW 1.6 km/h 6.4 km/h 96 % 0 mm
08:34 6.6 °C 5.9 °C 1010.7 hPa SW 1.6 km/h 8 km/h 96 % 0 mm
08:39 6.6 °C 6 °C 1010.7 hPa Calm   3.2 km/h 96 % 0 mm
08:44 6.7 °C 6.1 °C 1010.4 hPa Calm     96 % 0 mm
08:49 6.8 °C 6.2 °C 1010.4 hPa Calm   6.4 km/h 96 % 0 mm
08:54 6.9 °C 6.3 °C 1010.4 hPa SW 1.3 km/h 3.7 km/h 96 % 0 mm
08:59 7 °C 6.6 °C 1010.4 hPa SW 2.3 km/h 5.6 km/h 97 % 0 mm
09:04 7.1 °C 6.4 °C 1010.7 hPa SW 1.1 km/h 5.6 km/h 96 % 0 mm
09:09 7.2 °C 6.6 °C 1010.7 hPa SW 6 km/h 8 km/h 96 % 0 mm
09:14 7.2 °C 6.6 °C 1010.7 hPa SW 5.6 km/h 7.4 km/h 96 % 0 mm
09:19 7.3 °C 6.7 °C 1010.7 hPa West 0.5 km/h 5.6 km/h 96 % 0 mm
09:24 7.3 °C 6.7 °C 1010.7 hPa Calm     96 % 0 mm
09:29 7.3 °C 6.7 °C 1010.7 hPa SW 1.8 km/h 5.6 km/h 96 % 0 mm
09:34 7.4 °C 6.8 °C 1010.7 hPa WSW 3.7 km/h 5.6 km/h 96 % 0 mm
09:39 7.6 °C 6.8 °C 1010.7 hPa WSW 5 km/h 5.6 km/h 95 % 0 mm
09:44 7.7 °C 6.9 °C 1010.7 hPa SSW 5.3 km/h 7.4 km/h 95 % 0 mm
09:49 7.8 °C 7 °C 1010.7 hPa West 3.2 km/h 5.6 km/h 95 % 0 mm
09:54 7.9 °C 7.2 °C 1011.1 hPa SW 3.2 km/h 5.6 km/h 95 % 0 mm
09:59 8.1 °C 7.2 °C 1010.7 hPa SW 4.2 km/h 6.4 km/h 94 % 0 mm
10:04 8.3 °C 7.2 °C 1010.7 hPa South 7.2 km/h 11.1 km/h 93 % 0 mm
10:10 8.5 °C 7.4 °C 1010.4 hPa SSW 2.6 km/h 8 km/h 93 % 0 mm
10:15 8.7 °C 7.4 °C 1010.4 hPa WNW 4.2 km/h 7.4 km/h 92 % 0 mm
10:20 8.8 °C 7.4 °C 1010.4 hPa West 2.6 km/h 5.6 km/h 91 % 0 mm
10:25 8.9 °C 7.3 °C 1010.4 hPa WSW 2.9 km/h 5.6 km/h 90 % 0 mm
10:30 8.9 °C 7.4 °C 1010.4 hPa West 5.8 km/h 7.4 km/h 90 % 0 mm
10:35 9.1 °C 7.3 °C 1010.4 hPa West 7.1 km/h 11.1 km/h 89 % 0 mm
10:40 9.1 °C 7.4 °C 1010.4 hPa WSW 5.3 km/h 9.3 km/h 89 % 0 mm
10:45 9.2 °C 7.3 °C 1010 hPa WNW 4.7 km/h 9.3 km/h 88 % 0 mm
10:50 9.3 °C 7.4 °C 1010 hPa Calm   1.9 km/h 88 % 0 mm
10:55 9.4 °C 7.6 °C 1009.7 hPa WSW 3.9 km/h 6.4 km/h 88 % 0 mm
11:00 9.6 °C 7.7 °C 1009.7 hPa WNW 6.8 km/h 9.3 km/h 88 % 0 mm
11:05 9.7 °C 7.6 °C 1009.7 hPa West 2.3 km/h 9.3 km/h 87 % 0 mm
11:10 9.8 °C 7.7 °C 1009.7 hPa WNW 7.2 km/h 9.3 km/h 87 % 0 mm
11:15 9.8 °C 7.8 °C 1009.7 hPa WNW 4.7 km/h 5.6 km/h 87 % 0 mm
11:20 9.9 °C 7.7 °C 1010 hPa West 6 km/h 7.4 km/h 86 % 0 mm
11:26 9.9 °C 7.6 °C 1010 hPa West 6 km/h 8 km/h 85 % 0 mm
11:31 10 °C 7.6 °C 1010 hPa West 1 km/h 5.6 km/h 85 % 0 mm
11:36 10 °C 7.6 °C 1009.7 hPa WNW 2.6 km/h 3.7 km/h 85 % 0 mm
11:41 10.1 °C 7.7 °C 1009.7 hPa NW 2.6 km/h 6.4 km/h 85 % 0 mm
11:46 10.1 °C 7.7 °C 1009.7 hPa NW 1.3 km/h 5.6 km/h 85 % 0 mm
11:51 10.1 °C 7.7 °C 1009.7 hPa NNW 2.9 km/h 9.3 km/h 85 % 0 mm
11:56 10.1 °C 7.7 °C 1009.7 hPa WSW 5.6 km/h 8 km/h 85 % 0 mm
12:01 10.1 °C 7.5 °C 1009.7 hPa WSW 4.3 km/h 8 km/h 84 % 0 mm
12:06 10.1 °C 7.5 °C 1009.7 hPa WSW 3.7 km/h 6.4 km/h 84 % 0 mm
12:11 10.2 °C 7.8 °C 1009.7 hPa WSW 3.2 km/h 5.6 km/h 85 % 0 mm
12:16 10.3 °C 7.9 °C 1009.4 hPa WNW 0.6 km/h 3.7 km/h 85 % 0 mm
12:21 10.4 °C 7.8 °C 1009.4 hPa WNW 1.4 km/h 3.7 km/h 84 % 0 mm
12:26 10.6 °C 8 °C 1009.4 hPa WSW 8 km/h 13 km/h 84 % 0 mm
12:31 10.7 °C 7.9 °C 1009.4 hPa West 3.4 km/h 9.3 km/h 83 % 0 mm
12:36 10.9 °C 7.9 °C 1009 hPa West 5 km/h 7.4 km/h 82 % 0 mm
12:41 11.1 °C 8.3 °C 1008.7 hPa SW 4.3 km/h 9.3 km/h 83 % 0 mm
12:46 11.2 °C 8.3 °C 1008.7 hPa WNW 4 km/h 13 km/h 82 % 0 mm
12:51 11.3 °C 8.4 °C 1008.7 hPa WSW 6.8 km/h 11.3 km/h 82 % 0 mm
12:57 11.3 °C 8 °C 1008.7 hPa SSW 6.8 km/h 7.4 km/h 80 % 0 mm
13:02 11.3 °C 8 °C 1008.7 hPa SW 8 km/h 9.3 km/h 80 % 0 mm
13:07 11.4 °C 8.1 °C 1008.4 hPa SW 7.7 km/h 11.1 km/h 80 % 0 mm
13:12 11.5 °C 8.2 °C 1008.4 hPa WNW 6.9 km/h 9.7 km/h 80 % 0 mm
13:17 11.5 °C 8.2 °C 1008.4 hPa SW 4.5 km/h 8 km/h 80 % 0 mm
13:22 11.6 °C 8.1 °C 1008 hPa WSW 5 km/h 8 km/h 79 % 0 mm
13:27 11.6 °C 8.2 °C 1008 hPa WNW 2.3 km/h 6.4 km/h 80 % 0 mm
13:32 11.6 °C 8.3 °C 1008 hPa NW 4 km/h 5.6 km/h 80 % 0 mm
13:37 11.7 °C 8.3 °C 1008 hPa West 0.6 km/h 3.7 km/h 80 % 0 mm
13:42 11.7 °C 8.2 °C 1008 hPa WSW 3.4 km/h 9.3 km/h 79 % 0 mm
13:47 11.8 °C 8.3 °C 1007.7 hPa West 0.2 km/h 1.9 km/h 79 % 0 mm
13:52 11.9 °C 8.2 °C 1007.7 hPa SW 3.1 km/h 8 km/h 78 % 0 mm
13:57 11.9 °C 8.2 °C 1007.7 hPa WNW 3.2 km/h 5.6 km/h 78 % 0 mm
14:02 11.8 °C 8.1 °C 1007.7 hPa WNW 6 km/h 9.3 km/h 78 % 0 mm
14:07 11.7 °C 7.8 °C 1007.7 hPa NNW 4.7 km/h 6.4 km/h 77 % 0 mm
14:12 11.4 °C 7.6 °C 1007.7 hPa NW 4.3 km/h 8 km/h 77 % 0 mm
14:17 11.3 °C 7.8 °C 1007.7 hPa NW 1.8 km/h 5.6 km/h 79 % 0 mm
14:22 11.1 °C 7.6 °C 1007.7 hPa NNW 2.4 km/h 4.8 km/h 79 % 0 mm
14:27 10.9 °C 7.4 °C 1007.3 hPa NW 3.4 km/h 5.6 km/h 79 % 0 mm
14:32 10.8 °C 7.4 °C 1007.7 hPa WNW 4 km/h 5.6 km/h 80 % 0 mm
14:38 10.6 °C 7.2 °C 1007.7 hPa WNW 1.9 km/h 5.6 km/h 80 % 0 mm
14:43 10.3 °C 7.1 °C 1007.7 hPa NNW 4.3 km/h 5.6 km/h 80 % 0 mm
14:48 10.1 °C 6.9 °C 1007.7 hPa NW 5.1 km/h 9.3 km/h 81 % 0 mm
14:53 9.8 °C 6.9 °C 1007.7 hPa NW 4.3 km/h 6.4 km/h 82 % 0 mm
14:58 9.7 °C 6.8 °C 1008 hPa NW 5.3 km/h 11.1 km/h 82 % 0 mm
15:03 9.5 °C 6.8 °C 1007.7 hPa NW 5.1 km/h 5.6 km/h 83 % 0 mm
15:08 9.4 °C 6.8 °C 1008 hPa WNW 0.6 km/h 5.6 km/h 84 % 0 mm
15:14 9.3 °C 6.7 °C 1008 hPa NW 4.2 km/h 7.4 km/h 84 % 0 mm
15:19 9.2 °C 6.8 °C 1008 hPa WNW 4.3 km/h 5.6 km/h 85 % 0 mm
15:24 9.2 °C 6.8 °C 1008 hPa NW 3.5 km/h 6.4 km/h 85 % 0 mm
15:29 9.2 °C 6.8 °C 1008 hPa NW 1.6 km/h 3.2 km/h 85 % 0 mm
15:34 9.1 °C 6.9 °C 1008 hPa Calm   4.8 km/h 86 % 0 mm
15:39 9.1 °C 6.9 °C 1008 hPa NW 1.6 km/h 3.2 km/h 86 % 0 mm
15:44 9.1 °C 6.9 °C 1008 hPa Calm   3.2 km/h 86 % 0 mm
15:49 9.1 °C 6.9 °C 1008.4 hPa Calm   1.6 km/h 86 % 0 mm
15:54 9.1 °C 7.1 °C 1008 hPa Calm     87 % 0 mm
15:59 9.1 °C 7.1 °C 1008 hPa Calm     87 % 0 mm
16:04 9.1 °C 7.1 °C 1008 hPa Calm     87 % 0 mm
16:09 9.1 °C 7 °C 1008 hPa Calm     87 % 0 mm
16:14 9.1 °C 7.1 °C 1008 hPa Calm     87 % 0 mm
16:19 9.1 °C 7 °C 1008 hPa Calm     87 % 0 mm
16:24 9.1 °C 7 °C 1008 hPa Calm     87 % 0 mm
16:29 9.1 °C 7 °C 1007.7 hPa NW 0.3 km/h 1.9 km/h 87 % 0 mm
16:34 9.1 °C 7 °C 1008 hPa Calm     87 % 0 mm
16:39 9.1 °C 7.2 °C 1008 hPa Calm     88 % 0 mm
16:44 9.1 °C 7.2 °C 1007.7 hPa Calm     88 % 0 mm
16:49 9 °C 7.1 °C 1008 hPa Calm     88 % 0 mm
16:54 8.9 °C 7.1 °C 1008 hPa Calm     88 % 0 mm
16:59 8.9 °C 6.8 °C 1008 hPa Calm     87 % 0 mm
17:04 8.8 °C 6.8 °C 1008 hPa Calm     87 % 0 mm
17:09 8.8 °C 6.7 °C 1008 hPa Calm     87 % 0 mm
17:15 8.7 °C 6.8 °C 1008 hPa Calm     88 % 0 mm
17:20 8.6 °C 6.7 °C 1008 hPa NW 0.2 km/h 1.6 km/h 88 % 0 mm
17:25 8.5 °C 6.6 °C 1008 hPa WSW 0.2 km/h 1.9 km/h 88 % 0 mm
17:30 8.4 °C 6.5 °C 1008 hPa WSW 1.6 km/h 3.2 km/h 88 % 0 mm
17:35 8.3 °C 6.4 °C 1008 hPa WSW 0.6 km/h 1.9 km/h 88 % 0 mm
17:40 8.3 °C 6.6 °C 1008 hPa Calm   1.9 km/h 89 % 0 mm
17:45 8.2 °C 6.3 °C 1008 hPa Calm   1.9 km/h 88 % 0 mm
17:50 8.1 °C 6.3 °C 1008 hPa WSW 2.7 km/h 5.6 km/h 89 % 0 mm
17:55 8 °C 6.3 °C 1008 hPa WSW 1.1 km/h 3.7 km/h 89 % 0 mm
18:00 7.9 °C 6.2 °C 1008.4 hPa WSW 1.9 km/h 3.7 km/h 89 % 0 mm
18:05 7.8 °C 6.3 °C 1008 hPa SSW 1.3 km/h 3.7 km/h 90 % 0 mm
18:10 7.7 °C 6 °C 1008 hPa SSW 2.3 km/h 3.7 km/h 89 % 0 mm
18:15 7.7 °C 5.9 °C 1008 hPa SSW 2.4 km/h 4.8 km/h 89 % 0 mm
18:20 7.5 °C 5.9 °C 1008 hPa SSW 3.7 km/h 5.6 km/h 90 % 0 mm
18:25 7.4 °C 5.8 °C 1008.4 hPa SSW 4.5 km/h 5.6 km/h 90 % 0 mm
18:30 7.3 °C 5.9 °C 1008.4 hPa SW 2.6 km/h 5.6 km/h 91 % 0 mm
18:35 7.2 °C 5.8 °C 1008.4 hPa SSW 3.2 km/h 5.6 km/h 91 % 0 mm
18:40 7.2 °C 5.8 °C 1008.4 hPa South 3.4 km/h 5.6 km/h 91 % 0 mm
18:46 7.1 °C 5.7 °C 1008.4 hPa SW 2.9 km/h 3.7 km/h 91 % 0 mm
18:51 7.1 °C 5.7 °C 1008.4 hPa SSW 3.7 km/h 5.6 km/h 91 % 0 mm
18:56 7 °C 5.6 °C 1008.4 hPa SSW 1.6 km/h 5.6 km/h 91 % 0 mm
19:01 6.9 °C 5.7 °C 1008.4 hPa SSW 3.2 km/h 3.2 km/h 92 % 0 mm
19:06 6.9 °C 5.7 °C 1008.4 hPa SSW 0.8 km/h 6.4 km/h 92 % 0 mm
19:11 6.8 °C 5.6 °C 1008.4 hPa South 1.4 km/h 5.6 km/h 92 % 0 mm
19:16 6.7 °C 5.5 °C 1008.4 hPa South 1 km/h 5.6 km/h 92 % 0 mm
19:21 6.7 °C 5.5 °C 1008.4 hPa SW 1.6 km/h 3.7 km/h 92 % 0 mm
19:26 6.6 °C 5.4 °C 1008.4 hPa SSW 3.9 km/h 5.6 km/h 92 % 0 mm
19:31 6.6 °C 5.5 °C 1008.4 hPa SSW 1.6 km/h 3.7 km/h 93 % 0 mm
19:36 6.6 °C 5.5 °C 1008.4 hPa SSW 0.3 km/h 1.9 km/h 93 % 0 mm
19:41 6.5 °C 5.4 °C 1008.4 hPa SSW 2.1 km/h 5.6 km/h 93 % 0 mm
19:46 6.5 °C 5.4 °C 1008.4 hPa SSW 1.9 km/h 5.6 km/h 93 % 0 mm
19:51 6.4 °C 5.4 °C 1008.4 hPa Calm   1.9 km/h 93 % 0 mm
19:56 6.4 °C 5.3 °C 1008.4 hPa SSW 0.8 km/h 3.2 km/h 93 % 0 mm
20:01 6.3 °C 5.3 °C 1008.4 hPa SSW 2.3 km/h 3.7 km/h 93 % 0 mm
20:06 6.3 °C 5.3 °C 1008 hPa SSW 1.8 km/h 3.7 km/h 93 % 0 mm
20:12 6.3 °C 5.2 °C 1008 hPa SSW 1.8 km/h 3.7 km/h 93 % 0 mm
20:17 6.3 °C 5.2 °C 1008 hPa SSW 2.9 km/h 5.6 km/h 93 % 0 mm
20:22 6.2 °C 5.3 °C 1008.4 hPa Calm     94 % 0 mm
20:27 6.2 °C 5.2 °C 1008.4 hPa Calm   1.6 km/h 93 % 0 mm
20:32 6.2 °C 5.3 °C 1008 hPa SSW 1.3 km/h 3.7 km/h 94 % 0 mm
20:37 6.2 °C 5.3 °C 1008 hPa Calm     94 % 0 mm
20:42 6.2 °C 5.3 °C 1008 hPa Calm     94 % 0 mm
20:47 6.2 °C 5.3 °C 1008 hPa Calm     94 % 0 mm
20:52 6.2 °C 5.3 °C 1007.7 hPa SW 0.8 km/h 3.7 km/h 94 % 0 mm
20:57 6.2 °C 5.3 °C 1008 hPa SW 0.6 km/h 1.9 km/h 94 % 0 mm
21:02 6.2 °C 5.3 °C 1008 hPa Calm     94 % 0 mm
21:07 6.2 °C 5.5 °C 1008 hPa SW 0.2 km/h   95 % 0 mm
21:12 6.3 °C 5.6 °C 1007.7 hPa SW 0.2 km/h 1.9 km/h 95 % 0 mm
21:17 6.3 °C 5.6 °C 1008 hPa SW 0.2 km/h 1.9 km/h 95 % 0 mm
21:22 6.3 °C 5.6 °C 1007.7 hPa Calm     95 % 0 mm
21:27 6.3 °C 5.6 °C 1007.7 hPa SW 0.3 km/h 1.9 km/h 95 % 0 mm
21:32 6.4 °C 5.7 °C 1007.7 hPa SW 2.3 km/h 5.6 km/h 95 % 0 mm
21:38 6.4 °C 5.7 °C 1007.7 hPa Calm   1.9 km/h 95 % 0 mm
21:43 6.4 °C 5.7 °C 1007.7 hPa Calm     95 % 0 mm
21:48 6.5 °C 5.8 °C 1007.7 hPa Calm   3.7 km/h 95 % 0 mm
21:53 6.5 °C 5.8 °C 1007.7 hPa SW 1.6 km/h 3.2 km/h 95 % 0 mm
21:58 6.6 °C 5.9 °C 1007.7 hPa SSW 1.3 km/h 4.8 km/h 95 % 0 mm
22:03 6.6 °C 6 °C 1007.7 hPa Calm   5.6 km/h 96 % 0 mm
22:08 6.7 °C 6.1 °C 1007.7 hPa Calm     96 % 0 mm
22:13 6.7 °C 6.1 °C 1007.7 hPa SSW 0.3 km/h 1.9 km/h 96 % 0 mm
22:18 6.7 °C 6.1 °C 1007.7 hPa Calm     96 % 0 mm
22:23 6.7 °C 6.1 °C 1007.7 hPa Calm     96 % 0 mm
22:28 6.7 °C 6.1 °C 1007.7 hPa SSW 0.8 km/h 3.7 km/h 96 % 0 mm
22:33 6.7 °C 6.1 °C 1007.7 hPa Calm     96 % 0 mm
22:38 6.7 °C 6.1 °C 1008 hPa SSW 1.8 km/h 4.8 km/h 96 % 0 mm
22:43 6.7 °C 6.1 °C 1008 hPa Calm     96 % 0 mm
22:48 6.7 °C 6.1 °C 1008 hPa Calm     96 % 0 mm
22:53 6.8 °C 6.2 °C 1008 hPa SSW 1.4 km/h 4.8 km/h 96 % 0 mm
22:59 6.8 °C 6.2 °C 1008 hPa SW 5.1 km/h 7.4 km/h 96 % 0 mm
23:04 6.8 °C 6.2 °C 1008.4 hPa SW 5.6 km/h 7.4 km/h 96 % 0 mm
23:09 6.8 °C 6.2 °C 1008 hPa SW 4.2 km/h 6.4 km/h 96 % 0 mm
23:14 6.8 °C 6.2 °C 1008 hPa WSW 1.8 km/h 5.6 km/h 96 % 0 mm
23:19 6.9 °C 6.3 °C 1008 hPa SW 3.2 km/h 9.7 km/h 96 % 0 mm
23:24 6.9 °C 6.3 °C 1008 hPa SW 1.6 km/h 8 km/h 96 % 0 mm
23:29 6.9 °C 6.3 °C 1008 hPa SW 1.6 km/h 9.7 km/h 96 % 0 mm
23:34 6.9 °C 6.5 °C 1008 hPa SW 3.2 km/h 6.4 km/h 97 % 0 mm
23:39 7 °C 6.6 °C 1008 hPa WSW 3.2 km/h 8 km/h 97 % 0 mm
23:44 7.1 °C 6.6 °C 1008 hPa WSW 1.6 km/h 6.4 km/h 97 % 0 mm
23:49 7.1 °C 6.6 °C 1007.7 hPa WSW 1.6 km/h 4.8 km/h 97 % 0 mm
23:54 7.1 °C 6.7 °C 1007.7 hPa WNW 0.3 km/h 5.6 km/h 97 % 0 mm
23:59 7.1 °C 6.7 °C 1007.7 hPa Calm     97 % 0 mm
Crab Meadow Weather
Compliments of Weather Underground - 3 mb

Script developed by  Jim McMurry - jmcmurry@mwt.net Adapted for the template by  Wim van der Kuil - Leuven-Template.eu

Weather Terms: Enhanced Fujita Scale or EF-Scale - A scale of wind damage intensity in which wind speeds are inferred from analysis of wind damage. All tornadoes and most other windstorms are assigned a numerical rating from this scale according to the most intense damage caused by the storm. EF0 (weak) 6585 mph, light damage EF1 (weak) 86110 mph, moderate damage EF2 (strong) 111135 mph, considerable damage EF3 (strong) 136165 mph, severe damage EF4 (violent) 166200 mph, devastating damage EF5 (violent) >200 mph, incredible damage.